createdAt,value
2019-04-11T00:01:46.945Z,100557.26
2019-04-11T00:06:47.769Z,100555.78
2019-04-11T00:11:52.374Z,100564.28
2019-04-11T00:16:56.048Z,100556.52
2019-04-11T00:21:59.627Z,100584.79
2019-04-11T00:27:03.201Z,100569.80
2019-04-11T00:32:09.151Z,100576.06
2019-04-11T00:37:12.729Z,100566.02
2019-04-11T00:42:16.840Z,100570.61
2019-04-11T00:47:20.734Z,100566.51
2019-04-11T00:52:25.370Z,100560.57
2019-04-11T00:57:28.937Z,100559.61
2019-04-11T01:02:33.562Z,100568.57
2019-04-11T01:07:37.271Z,100580.75
2019-04-11T01:12:40.896Z,100574.42
2019-04-11T01:17:45.445Z,100577.31
2019-04-11T01:22:49.059Z,100575.02
2019-04-11T01:27:52.734Z,100570.69
2019-04-11T01:32:56.954Z,100573.25
2019-04-11T01:38:00.978Z,100568.73
2019-04-11T01:43:05.989Z,100570.80
2019-04-11T01:48:15.311Z,100566.54
2019-04-11T01:53:19.265Z,100579.23
2019-04-11T01:58:22.991Z,100586.69
2019-04-11T02:03:45.507Z,100575.16
2019-04-11T02:08:49.489Z,100586.55
2019-04-11T02:14:05.065Z,100587.64
2019-04-11T02:18:59.490Z,100578.77
2019-04-11T02:24:07.852Z,100589.08
2019-04-11T02:29:11.580Z,100591.81
2019-04-11T02:34:16.008Z,100602.98
2019-04-11T02:39:20.501Z,100606.87
2019-04-11T02:44:39.890Z,100604.22
2019-04-11T02:49:31.158Z,100612.50
2019-04-11T02:54:36.669Z,100611.88
2019-04-11T02:59:40.979Z,100613.02
2019-04-11T03:04:45.983Z,100620.31
2019-04-11T03:09:51.037Z,100628.87
2019-04-11T03:15:09.394Z,100641.48
2019-04-11T03:20:13.012Z,100633.72
2019-04-11T03:25:08.477Z,100626.13
2019-04-11T03:30:16.131Z,100636.08
2019-04-11T03:36:10.749Z,100635.26
2019-04-11T03:40:43.428Z,100641.08
2019-04-11T03:45:48.300Z,100645.76
2019-04-11T03:50:34.807Z,100650.70
2019-04-11T03:55:39.043Z,100662.28
2019-04-11T04:00:44.499Z,100660.91
2019-04-11T04:05:48.653Z,100663.45
2019-04-11T04:11:14.715Z,100666.97
2019-04-11T04:16:40.785Z,100668.02
2019-04-11T04:21:42.887Z,100666.11
2019-04-11T04:26:48.331Z,100668.69
2019-04-11T04:31:53.251Z,100685.32
2019-04-11T04:36:57.891Z,100690.42
2019-04-11T04:42:09.213Z,100683.33
2019-04-11T04:47:18.864Z,100698.39
2019-04-11T04:52:14.333Z,100700.38
2019-04-11T04:57:18.227Z,100703.48
2019-04-11T05:02:23.946Z,100720.35
2019-04-11T05:07:32.189Z,100715.95
2019-04-11T05:12:34.449Z,100735.66
2019-04-11T05:17:38.683Z,100716.38
2019-04-11T05:22:43.632Z,100722.05
2019-04-11T05:27:47.574Z,100730.79
2019-04-11T05:32:51.127Z,100727.38
2019-04-11T05:37:57.892Z,100738.42
2019-04-11T05:43:01.874Z,100733.73
2019-04-11T05:48:06.982Z,100728.73
2019-04-11T05:53:10.606Z,100724.02
2019-04-11T05:58:15.670Z,100736.06
2019-04-11T06:03:21.803Z,100741.91
2019-04-11T06:08:40.339Z,100747.28
2019-04-11T06:13:48.889Z,100738.70
2019-04-11T06:19:04.043Z,100733.59
2019-04-11T06:24:28.032Z,100746.19
2019-04-11T06:29:45.210Z,100751.05
2019-04-11T06:35:02.459Z,100739.95
2019-04-11T06:40:11.710Z,100751.41
2019-04-11T06:45:33.184Z,100762.55
2019-04-11T06:50:41.690Z,100761.86
2019-04-11T06:55:46.910Z,100775.38
2019-04-11T07:00:52.052Z,100762.73
2019-04-11T07:05:57.216Z,100750.01
2019-04-11T07:11:09.447Z,100751.70
2019-04-11T07:16:13.432Z,100755.39
2019-04-11T07:21:17.130Z,100772.02
2019-04-11T07:26:23.001Z,100766.67
2019-04-11T07:31:44.235Z,100768.58
2019-04-11T07:36:53.503Z,100772.03
2019-04-11T07:42:00.185Z,100791.92
2019-04-11T07:47:17.764Z,100793.44
2019-04-11T07:52:15.516Z,100771.94
2019-04-11T07:57:38.955Z,100777.49
2019-04-11T08:03:00.299Z,100775.25
2019-04-11T08:08:13.258Z,100782.75
2019-04-11T08:13:28.302Z,100770.86
2019-04-11T08:18:36.902Z,100780.92
2019-04-11T08:23:43.353Z,100780.84
2019-04-11T08:28:59.238Z,100779.52
2019-04-11T08:33:55.111Z,100786.83
2019-04-11T08:38:59.150Z,100791.41
2019-04-11T08:44:03.643Z,100789.14
2019-04-11T08:49:15.279Z,100790.80
2019-04-11T08:54:37.639Z,100786.59
2019-04-11T08:59:46.238Z,100789.02
2019-04-11T09:05:03.143Z,100781.62
2019-04-11T09:10:04.598Z,100780.20
2019-04-11T09:15:10.757Z,100781.73
2019-04-11T09:20:32.203Z,100791.55
2019-04-11T09:25:56.562Z,100779.41
2019-04-11T09:31:01.762Z,100784.85
2019-04-11T09:36:23.950Z,100774.55
2019-04-11T09:41:32.294Z,100778.91
2019-04-11T09:46:38.604Z,100775.56
2019-04-11T09:51:47.689Z,100789.85
2019-04-11T09:57:12.120Z,100781.45
2019-04-11T10:02:33.461Z,100790.17
2019-04-11T10:07:54.467Z,100789.75
2019-04-11T10:13:06.798Z,100789.75
2019-04-11T10:18:27.786Z,100787.93
2019-04-11T10:23:37.236Z,100793.66
2019-04-11T10:28:58.745Z,100795.73
2019-04-11T10:34:21.561Z,100786.71
2019-04-11T10:39:35.939Z,100781.92
2019-04-11T10:44:42.221Z,100792.14
2019-04-11T10:49:50.605Z,100783.97
2019-04-11T10:55:05.172Z,100799.37
2019-04-11T11:00:29.412Z,100787.70
2019-04-11T11:05:43.226Z,100786.95
2019-04-11T11:10:47.924Z,100789.27
2019-04-11T11:15:56.167Z,100790.82
2019-04-11T11:21:02.598Z,100801.91
2019-04-11T11:26:22.569Z,100795.58
2019-04-11T11:31:29.985Z,100797.39
2019-04-11T11:36:48.053Z,100792.83
2019-04-11T11:42:10.348Z,100797.92
2019-04-11T11:47:36.481Z,100794.58
2019-04-11T11:52:57.477Z,100812.81
2019-04-11T11:58:19.949Z,100807.80
2019-04-11T12:03:40.908Z,100797.72
2019-04-11T12:09:02.780Z,100811.39
2019-04-11T12:14:07.907Z,100804.53
2019-04-11T12:19:18.089Z,100817.08
2019-04-11T12:24:36.589Z,100793.75
2019-04-11T12:29:52.316Z,100805.78
2019-04-11T12:35:02.302Z,100804.59
2019-04-11T12:40:09.746Z,100801.12
2019-04-11T12:45:15.466Z,100786.30
2019-04-11T12:50:20.874Z,100789.80
2019-04-11T12:55:43.145Z,100780.81
2019-04-11T13:00:57.839Z,100792.35
2019-04-11T13:06:19.884Z,100782.17
2019-04-11T13:11:25.578Z,100791.09
2019-04-11T13:16:30.831Z,100782.13
2019-04-11T13:21:38.963Z,100780.09
2019-04-11T13:26:56.689Z,100792.78
2019-04-11T13:32:05.067Z,100794.08
2019-04-11T13:37:26.437Z,100792.13
2019-04-11T13:42:48.036Z,100785.19
2019-04-11T13:48:09.439Z,100794.56
2019-04-11T13:53:30.841Z,100795.67
2019-04-11T13:58:36.003Z,100792.36
2019-04-11T14:03:57.634Z,100793.27
2019-04-11T14:09:08.739Z,100804.42
2019-04-11T14:14:13.911Z,100793.06
2019-04-11T14:19:34.086Z,100788.91
2019-04-11T14:24:48.260Z,100787.61
2019-04-11T14:29:53.392Z,100792.31
2019-04-11T14:35:10.613Z,100787.87
2019-04-11T14:40:15.850Z,100788.84
2019-04-11T14:45:37.268Z,100789.78
2019-04-11T14:51:00.649Z,100786.04
2019-04-11T14:56:06.372Z,100787.64
2019-04-11T15:01:11.514Z,100797.23
2019-04-11T15:06:19.695Z,100805.72
2019-04-11T15:11:24.835Z,100799.46
2019-04-11T15:16:46.659Z,100791.58
2019-04-11T15:21:51.800Z,100796.02
2019-04-11T15:26:56.957Z,100808.47
2019-04-11T15:32:14.387Z,100801.45
2019-04-11T15:37:19.519Z,100802.45
2019-04-11T15:42:24.702Z,100803.77
2019-04-11T15:47:29.970Z,100806.43
2019-04-11T15:52:34.725Z,100820.34
2019-04-11T15:57:42.901Z,100816.22
2019-04-11T16:02:47.980Z,100809.26
2019-04-11T16:07:55.958Z,100830.28
2019-04-11T16:13:16.177Z,100820.02
2019-04-11T16:18:37.321Z,100819.88
2019-04-11T16:23:42.440Z,100825.72
2019-04-11T16:28:50.637Z,100826.61
2019-04-11T16:34:07.734Z,100826.61
2019-04-11T16:39:12.877Z,100825.08
2019-04-11T16:44:25.138Z,100836.82
2019-04-11T16:49:29.287Z,100843.41
2019-04-11T16:54:32.849Z,100837.75
2019-04-11T16:59:36.920Z,100847.50
2019-04-11T17:04:40.487Z,100842.95
2019-04-11T17:09:45.661Z,100845.91
2019-04-11T17:14:49.211Z,100846.38
2019-04-11T17:19:52.797Z,100847.36
2019-04-11T17:24:56.387Z,100848.85
2019-04-11T17:30:00.064Z,100855.64
2019-04-11T17:35:04.025Z,100863.34
2019-04-11T17:40:07.769Z,100869.65
2019-04-11T17:45:11.351Z,100875.50
2019-04-11T17:50:14.999Z,100883.12
2019-04-11T17:55:18.629Z,100881.08
2019-04-11T18:00:29.715Z,100887.20
2019-04-11T18:05:32.158Z,100904.21
2019-04-11T18:10:35.756Z,100920.72
2019-04-11T18:15:39.339Z,100918.91
2019-04-11T18:20:42.967Z,100925.59
2019-04-11T18:25:46.572Z,100922.91
2019-04-11T18:30:53.757Z,100929.09
2019-04-11T18:35:55.622Z,100943.57
2019-04-11T18:40:59.239Z,100934.84
2019-04-11T18:46:02.794Z,100941.77
2019-04-11T18:51:06.386Z,100948.26
2019-04-11T18:56:09.954Z,100951.83
2019-04-11T19:01:13.667Z,100954.65
2019-04-11T19:06:27.457Z,100951.87
2019-04-11T19:11:22.736Z,100960.34
2019-04-11T19:16:26.338Z,100956.41
2019-04-11T19:21:29.931Z,100959.88
2019-04-11T19:26:33.551Z,100962.26
2019-04-11T19:31:37.153Z,100960.58
2019-04-11T19:36:42.487Z,100962.34
2019-04-11T19:41:48.025Z,100968.09
2019-04-11T19:46:51.752Z,100966.31
2019-04-11T19:51:55.440Z,100969.77
2019-04-11T19:57:03.569Z,100968.64
2019-04-11T20:02:07.179Z,100975.73
2019-04-11T20:07:10.954Z,100973.73
2019-04-11T20:12:14.939Z,100974.03
2019-04-11T20:17:19.352Z,100965.30
2019-04-11T20:22:24.029Z,100986.17
2019-04-11T20:27:27.626Z,100988.66
2019-04-11T20:32:33.141Z,100986.53
2019-04-11T20:37:39.503Z,100981.63
2019-04-11T20:42:41.880Z,100985.93
2019-04-11T20:47:45.560Z,100980.47
2019-04-11T20:52:49.141Z,100977.73
2019-04-11T20:57:52.744Z,100981.91
2019-04-11T21:02:58.398Z,100987.47
2019-04-11T21:08:03.977Z,100988.02
2019-04-11T21:13:07.812Z,100985.15
2019-04-11T21:18:11.671Z,100983.88
2019-04-11T21:23:24.082Z,100984.62
2019-04-11T21:28:20.524Z,100988.34
2019-04-11T21:33:24.154Z,100989.61
2019-04-11T21:38:28.063Z,100991.53
2019-04-11T21:43:35.889Z,100986.34
2019-04-11T21:48:38.615Z,100991.27
2019-04-11T21:53:45.162Z,100982.13
2019-04-11T21:58:50.157Z,100982.13
2019-04-11T22:03:57.052Z,100988.05
2019-04-11T22:08:59.037Z,100990.41
2019-04-11T22:14:02.709Z,100995.56
2019-04-11T22:19:06.316Z,100993.09
2019-04-11T22:24:09.873Z,100990.61
2019-04-11T22:29:13.996Z,100998.63
2019-04-11T22:34:21.464Z,100999.09
2019-04-11T22:39:24.445Z,100995.89
2019-04-11T22:44:28.038Z,100986.70
2019-04-11T22:49:31.634Z,100998.08
2019-04-11T22:54:35.185Z,100988.55
2019-04-11T22:59:38.803Z,100989.20
2019-04-11T23:04:42.426Z,101000.59
2019-04-11T23:09:48.540Z,100995.33
2019-04-11T23:14:51.315Z,100988.88
2019-04-11T23:19:54.927Z,100994.22
2019-04-11T23:24:58.497Z,100989.35
2019-04-11T23:30:02.168Z,100983.15
2019-04-11T23:35:06.176Z,100983.15
2019-04-11T23:40:09.734Z,100987.62
2019-04-11T23:45:13.821Z,100983.64
2019-04-11T23:50:17.361Z,100995.39
2019-04-11T23:55:21.128Z,101007.31
